»·PEaware :: N75232 KEMT-KSBA

N75232 :: KEMT-KSBA

FLIGHT INFORMATION

Flight Status: Arrived
Operator: Privately registered:
United States
More flights under this callsign
Pilot: Daniel B. (28719)
Aircraft: CESSNA 172 SKYHAWK
(C172)
More flights by this aircraft type
Origin: KEMT El Monte
United States
Destination: KSBA Santa Barbara Mun
United States
More flights between these airports :: More routes between these airports
Route: +
File this flight plan on PilotEdge
Remarks:
Altitude:
(Current/Filed)
2,500ft
Speed:
(Current/Filed)
0kts
Departed: 15-Apr-20 06:48 PM
Arrived: 15-Apr-20 07:41 PM
Distance/Time
Traveled:
92nm/0:53
Distance/Time
To Go:
Arrived

Flight Plot

Page will automatically refresh every two minutes.


Map Options




Map Legend


Flown Route
Filed Route
Departure Airport
Arrival Airport
Navaid (VOR, NDB)
Fix

Horizontal Profiles

Position Reports

Time Latitude Longitude Heading Altitude Ground
Speed
15-Apr-20 18:36 34.084565 -118.034115 18 288ft 0kts
15-Apr-20 18:37 34.084565 -118.034115 18 288ft 0kts
15-Apr-20 18:38 34.084565 -118.034115 18 288ft 0kts
15-Apr-20 18:39 34.084565 -118.034115 18 288ft 0kts
15-Apr-20 18:40 34.084565 -118.034115 18 288ft 0kts
15-Apr-20 18:41 34.084565 -118.034115 18 288ft 0kts
15-Apr-20 18:42 34.084773 -118.034291 294 287ft 0kts
15-Apr-20 18:43 34.086112 -118.034149 24 288ft 17kts
15-Apr-20 18:44 34.090729 -118.031623 319 296ft 5kts
15-Apr-20 18:45 34.090740 -118.031640 303 296ft 0kts
15-Apr-20 18:46 34.090853 -118.031992 253 295ft 8kts
15-Apr-20 18:47 34.080363 -118.038354 207 673ft 78kts
15-Apr-20 18:48 34.084072 -118.063440 282 1657ft 82kts
15-Apr-20 18:49 34.089987 -118.089772 278 2605ft 81kts
15-Apr-20 18:50 34.097430 -118.115906 281 3475ft 82kts
15-Apr-20 18:51 34.103623 -118.142727 278 4284ft 83kts
15-Apr-20 18:52 34.109139 -118.169988 277 5041ft 84kts
15-Apr-20 18:53 34.115829 -118.197234 279 5744ft 85kts
15-Apr-20 18:54 34.120387 -118.225131 281 6400ft 86kts
15-Apr-20 18:55 34.128364 -118.257648 280 6510ft 109kts
15-Apr-20 18:56 34.134735 -118.295212 282 6506ft 119kts
15-Apr-20 18:57 34.142432 -118.334893 289 6498ft 123kts
15-Apr-20 18:58 34.151697 -118.373058 284 6487ft 109kts
15-Apr-20 18:59 34.159881 -118.408074 279 6511ft 108kts
15-Apr-20 19:00 34.166782 -118.443708 280 6499ft 108kts
15-Apr-20 19:01 34.172772 -118.479151 278 6483ft 107kts
15-Apr-20 19:02 34.178762 -118.514419 281 6480ft 107kts
15-Apr-20 19:03 34.185408 -118.549431 282 6479ft 107kts
15-Apr-20 19:04 34.191545 -118.584372 280 6502ft 105kts
15-Apr-20 19:05 34.197375 -118.619085 282 6519ft 105kts
15-Apr-20 19:06 34.204333 -118.653314 283 6520ft 106kts
15-Apr-20 19:07 34.212383 -118.687531 283 6535ft 106kts
15-Apr-20 19:08 34.220319 -118.722063 284 6532ft 107kts
15-Apr-20 19:09 34.226558 -118.757478 281 6507ft 107kts
15-Apr-20 19:10 34.233266 -118.792633 282 6507ft 107kts
15-Apr-20 19:11 34.240720 -118.827502 282 6498ft 107kts
15-Apr-20 19:12 34.247548 -118.862781 280 6489ft 107kts
15-Apr-20 19:13 34.252801 -118.898336 279 6502ft 107kts
15-Apr-20 19:14 34.259284 -118.933476 283 6529ft 106kts
15-Apr-20 19:15 34.266688 -118.968311 282 6543ft 107kts
15-Apr-20 19:16 34.273262 -119.003587 279 6552ft 109kts
15-Apr-20 19:17 34.280826 -119.039567 287 6505ft 111kts
15-Apr-20 19:18 34.289060 -119.075494 285 6489ft 110kts
15-Apr-20 19:19 34.296135 -119.111229 277 6495ft 109kts
15-Apr-20 19:20 34.301742 -119.147474 283 6501ft 109kts
15-Apr-20 19:21 34.308612 -119.183208 280 6512ft 109kts
15-Apr-20 19:22 34.315676 -119.218796 283 6526ft 109kts
15-Apr-20 19:23 34.322538 -119.254576 282 6539ft 108kts
15-Apr-20 19:24 34.327299 -119.290768 278 6549ft 109kts
15-Apr-20 19:25 34.332066 -119.327185 280 6554ft 109kts
15-Apr-20 19:26 34.338829 -119.363432 285 6522ft 111kts
15-Apr-20 19:27 34.344931 -119.399946 283 6542ft 110kts
15-Apr-20 19:28 34.354365 -119.435160 293 6348ft 106kts
15-Apr-20 19:29 34.362853 -119.469533 286 5871ft 110kts
15-Apr-20 19:30 34.369148 -119.506032 284 5394ft 109kts
15-Apr-20 19:31 34.375900 -119.542128 278 4931ft 110kts
15-Apr-20 19:32 34.380462 -119.578831 283 4511ft 109kts
15-Apr-20 19:33 34.393506 -119.611420 308 4100ft 109kts
15-Apr-20 19:34 34.409595 -119.640741 304 3966ft 97kts
15-Apr-20 19:35 34.423026 -119.670826 294 3872ft 117kts
15-Apr-20 19:36 34.430577 -119.710623 265 3469ft 122kts
15-Apr-20 19:37 34.429214 -119.748864 269 2952ft 112kts
15-Apr-20 19:38 34.429124 -119.755459 269 2825ft 116kts
15-Apr-20 19:39 34.428629 -119.817636 265 930ft 87kts
15-Apr-20 19:40 34.427773 -119.840829 268 14ft 11kts
15-Apr-20 19:41 34.426963 -119.841477 167 14ft 0kts
15-Apr-20 19:42 34.426920 -119.841467 169 14ft 3kts
15-Apr-20 19:43 34.426699 -119.839041 88 12ft 20kts
15-Apr-20 19:44 34.426133 -119.837547 267 10ft 0kts
15-Apr-20 19:45 34.426133 -119.837547 267 10ft 0kts

Navigation Log

Ident Type
Flight plan parsing failed, navigation log unavailable